sensor_id;sensor_type;location;lat;lon;timestamp;P1;durP1;ratioP1;P2;durP2;ratioP2
70818;SDS011;58439;51.046;13.692;2023-05-24T00:01:07;18.92;;;4.00;;
70818;SDS011;58439;51.046;13.692;2023-05-24T00:03:35;25.25;;;5.10;;
70818;SDS011;58439;51.046;13.692;2023-05-24T00:06:05;23.13;;;4.05;;
70818;SDS011;58439;51.046;13.692;2023-05-24T00:08:32;20.13;;;4.07;;
70818;SDS011;58439;51.046;13.692;2023-05-24T00:11:00;25.08;;;4.95;;
70818;SDS011;58439;51.046;13.692;2023-05-24T00:13:27;17.30;;;4.68;;
70818;SDS011;58439;51.046;13.692;2023-05-24T00:16:03;24.10;;;4.85;;
70818;SDS011;58439;51.046;13.692;2023-05-24T00:18:58;15.73;;;4.10;;
70818;SDS011;58439;51.046;13.692;2023-05-24T00:21:25;16.30;;;3.92;;
70818;SDS011;58439;51.046;13.692;2023-05-24T00:23:52;13.95;;;3.85;;
70818;SDS011;58439;51.046;13.692;2023-05-24T00:26:22;16.73;;;4.75;;
70818;SDS011;58439;51.046;13.692;2023-05-24T00:28:54;23.15;;;4.57;;
70818;SDS011;58439;51.046;13.692;2023-05-24T00:36:36;17.67;;;4.43;;
70818;SDS011;58439;51.046;13.692;2023-05-24T00:39:41;21.73;;;4.18;;
70818;SDS011;58439;51.046;13.692;2023-05-24T00:42:09;20.58;;;4.07;;
70818;SDS011;58439;51.046;13.692;2023-05-24T00:44:36;24.23;;;4.70;;
70818;SDS011;58439;51.046;13.692;2023-05-24T00:47:03;16.27;;;3.85;;
70818;SDS011;58439;51.046;13.692;2023-05-24T00:49:33;24.90;;;4.10;;
70818;SDS011;58439;51.046;13.692;2023-05-24T00:52:01;19.67;;;4.50;;
70818;SDS011;58439;51.046;13.692;2023-05-24T00:54:29;18.25;;;4.40;;
70818;SDS011;58439;51.046;13.692;2023-05-24T00:56:56;16.02;;;3.88;;
70818;SDS011;58439;51.046;13.692;2023-05-24T00:59:24;21.25;;;4.72;;
70818;SDS011;58439;51.046;13.692;2023-05-24T01:01:52;19.73;;;3.75;;
70818;SDS011;58439;51.046;13.692;2023-05-24T01:04:21;17.77;;;4.20;;
70818;SDS011;58439;51.046;13.692;2023-05-24T01:32:12;25.58;;;3.83;;
70818;SDS011;58439;51.046;13.692;2023-05-24T01:53:25;20.00;;;3.70;;
70818;SDS011;58439;51.046;13.692;2023-05-24T01:56:06;14.65;;;3.47;;
70818;SDS011;58439;51.046;13.692;2023-05-24T01:58:42;21.48;;;3.55;;
70818;SDS011;58439;51.046;13.692;2023-05-24T02:01:12;17.70;;;3.30;;
70818;SDS011;58439;51.046;13.692;2023-05-24T02:03:40;13.15;;;3.17;;
70818;SDS011;58439;51.046;13.692;2023-05-24T02:06:07;21.42;;;5.15;;
70818;SDS011;58439;51.046;13.692;2023-05-24T02:18:56;23.17;;;4.47;;
70818;SDS011;58439;51.046;13.692;2023-05-24T02:31:27;16.17;;;3.85;;
70818;SDS011;58439;51.046;13.692;2023-05-24T03:16:48;19.42;;;3.30;;
70818;SDS011;58439;51.046;13.692;2023-05-24T03:21:36;15.45;;;2.75;;
70818;SDS011;58439;51.046;13.692;2023-05-24T03:35:18;18.98;;;3.45;;
70818;SDS011;58439;51.046;13.692;2023-05-24T03:38:34;21.67;;;4.57;;
70818;SDS011;58439;51.046;13.692;2023-05-24T04:15:52;18.38;;;3.58;;
70818;SDS011;58439;51.046;13.692;2023-05-24T06:26:45;25.50;;;3.53;;
70818;SDS011;58439;51.046;13.692;2023-05-24T06:51:41;24.30;;;3.92;;
70818;SDS011;58439;51.046;13.692;2023-05-24T07:00:00;25.58;;;3.78;;
70818;SDS011;58439;51.046;13.692;2023-05-24T07:52:46;19.88;;;3.85;;
70818;SDS011;58439;51.046;13.692;2023-05-24T08:11:29;19.48;;;4.28;;
70818;SDS011;58439;51.046;13.692;2023-05-24T08:20:22;21.13;;;4.22;;
70818;SDS011;58439;51.046;13.692;2023-05-24T09:38:59;17.98;;;5.10;;
70818;SDS011;58439;51.046;13.692;2023-05-24T09:42:32;19.17;;;4.15;;
70818;SDS011;58439;51.046;13.692;2023-05-24T10:28:13;20.35;;;4.40;;
70818;SDS011;58439;51.046;13.692;2023-05-24T10:46:14;23.45;;;4.90;;
70818;SDS011;58439;51.046;13.692;2023-05-24T10:49:20;22.00;;;4.80;;
70818;SDS011;58439;51.046;13.692;2023-05-24T10:57:05;16.35;;;3.80;;
70818;SDS011;58439;51.046;13.692;2023-05-24T11:11:57;17.75;;;3.75;;
70818;SDS011;58439;51.046;13.692;2023-05-24T11:24:50;16.63;;;3.88;;
70818;SDS011;58439;51.046;13.692;2023-05-24T11:45:34;12.48;;;3.75;;
70818;SDS011;58439;51.046;13.692;2023-05-24T11:50:00;17.58;;;4.35;;
70818;SDS011;58439;51.046;13.692;2023-05-24T11:52:36;15.75;;;3.83;;
70818;SDS011;58439;51.046;13.692;2023-05-24T12:00:09;14.18;;;3.85;;
70818;SDS011;58439;51.046;13.692;2023-05-24T12:45:12;19.30;;;4.68;;
70818;SDS011;58439;51.046;13.692;2023-05-24T12:54:49;18.92;;;4.32;;
70818;SDS011;58439;51.046;13.692;2023-05-24T13:07:00;22.10;;;4.70;;
70818;SDS011;58439;51.046;13.692;2023-05-24T13:10:58;16.13;;;3.63;;
70818;SDS011;58439;51.046;13.692;2023-05-24T13:22:40;15.43;;;3.67;;
70818;SDS011;58439;51.046;13.692;2023-05-24T13:25:37;12.63;;;4.45;;
70818;SDS011;58439;51.046;13.692;2023-05-24T13:36:24;17.92;;;4.40;;
70818;SDS011;58439;51.046;13.692;2023-05-24T13:38:52;18.73;;;4.32;;
70818;SDS011;58439;51.046;13.692;2023-05-24T13:41:38;19.52;;;4.20;;
70818;SDS011;58439;51.046;13.692;2023-05-24T13:44:09;10.20;;;3.72;;
70818;SDS011;58439;51.046;13.692;2023-05-24T13:46:42;15.02;;;4.47;;
70818;SDS011;58439;51.046;13.692;2023-05-24T13:49:10;15.02;;;4.63;;
70818;SDS011;58439;51.046;13.692;2023-05-24T13:51:38;13.48;;;4.00;;
70818;SDS011;58439;51.046;13.692;2023-05-24T13:54:06;13.82;;;4.05;;
70818;SDS011;58439;51.046;13.692;2023-05-24T13:56:34;15.98;;;3.85;;
70818;SDS011;58439;51.046;13.692;2023-05-24T13:59:02;15.13;;;3.75;;
70818;SDS011;58439;51.046;13.692;2023-05-24T14:01:31;16.85;;;4.20;;
70818;SDS011;58439;51.046;13.692;2023-05-24T14:04:03;11.15;;;3.90;;
70818;SDS011;58439;51.046;13.692;2023-05-24T14:06:32;12.27;;;4.18;;
70818;SDS011;58439;51.046;13.692;2023-05-24T14:09:00;14.02;;;3.92;;
70818;SDS011;58439;51.046;13.692;2023-05-24T14:11:28;9.95;;;3.28;;
70818;SDS011;58439;51.046;13.692;2023-05-24T14:13:57;16.13;;;4.13;;
70818;SDS011;58439;51.046;13.692;2023-05-24T14:16:27;13.02;;;3.55;;
70818;SDS011;58439;51.046;13.692;2023-05-24T14:18:55;11.60;;;3.58;;
70818;SDS011;58439;51.046;13.692;2023-05-24T14:21:23;15.85;;;4.53;;
70818;SDS011;58439;51.046;13.692;2023-05-24T14:23:52;16.80;;;4.07;;
70818;SDS011;58439;51.046;13.692;2023-05-24T14:26:19;15.30;;;4.07;;
70818;SDS011;58439;51.046;13.692;2023-05-24T14:28:50;15.93;;;4.45;;
70818;SDS011;58439;51.046;13.692;2023-05-24T14:31:21;13.10;;;4.35;;
70818;SDS011;58439;51.046;13.692;2023-05-24T14:33:49;15.20;;;4.50;;
70818;SDS011;58439;51.046;13.692;2023-05-24T14:36:17;12.57;;;4.28;;
70818;SDS011;58439;51.046;13.692;2023-05-24T14:38:44;13.52;;;4.00;;
70818;SDS011;58439;51.046;13.692;2023-05-24T14:41:12;17.45;;;4.68;;
70818;SDS011;58439;51.046;13.692;2023-05-24T14:43:39;17.02;;;4.10;;
70818;SDS011;58439;51.046;13.692;2023-05-24T14:46:07;9.48;;;3.70;;
70818;SDS011;58439;51.046;13.692;2023-05-24T14:48:36;15.63;;;3.97;;
70818;SDS011;58439;51.046;13.692;2023-05-24T14:51:06;12.77;;;3.85;;
70818;SDS011;58439;51.046;13.692;2023-05-24T14:53:33;14.57;;;3.92;;
70818;SDS011;58439;51.046;13.692;2023-05-24T14:56:01;15.35;;;4.35;;
70818;SDS011;58439;51.046;13.692;2023-05-24T14:58:30;16.15;;;4.10;;
70818;SDS011;58439;51.046;13.692;2023-05-24T15:00:57;14.60;;;4.05;;
70818;SDS011;58439;51.046;13.692;2023-05-24T15:03:24;17.73;;;4.07;;
70818;SDS011;58439;51.046;13.692;2023-05-24T15:05:52;15.20;;;3.70;;
70818;SDS011;58439;51.046;13.692;2023-05-24T15:08:19;16.02;;;4.28;;
70818;SDS011;58439;51.046;13.692;2023-05-24T15:10:47;16.00;;;4.10;;
70818;SDS011;58439;51.046;13.692;2023-05-24T15:13:14;16.02;;;4.07;;
70818;SDS011;58439;51.046;13.692;2023-05-24T15:15:41;10.52;;;3.72;;
70818;SDS011;58439;51.046;13.692;2023-05-24T15:18:09;14.27;;;4.10;;
70818;SDS011;58439;51.046;13.692;2023-05-24T15:20:37;11.68;;;3.78;;
70818;SDS011;58439;51.046;13.692;2023-05-24T15:23:04;17.02;;;4.07;;
70818;SDS011;58439;51.046;13.692;2023-05-24T15:25:31;13.18;;;3.72;;
70818;SDS011;58439;51.046;13.692;2023-05-24T15:27:58;18.02;;;3.72;;
70818;SDS011;58439;51.046;13.692;2023-05-24T15:30:26;14.70;;;3.60;;
70818;SDS011;58439;51.046;13.692;2023-05-24T15:32:54;10.52;;;3.92;;
70818;SDS011;58439;51.046;13.692;2023-05-24T15:35:21;12.95;;;3.67;;
70818;SDS011;58439;51.046;13.692;2023-05-24T15:37:48;13.25;;;3.60;;
70818;SDS011;58439;51.046;13.692;2023-05-24T15:40:15;15.02;;;4.13;;
70818;SDS011;58439;51.046;13.692;2023-05-24T15:42:44;13.48;;;3.67;;
70818;SDS011;58439;51.046;13.692;2023-05-24T15:45:11;15.30;;;4.25;;
70818;SDS011;58439;51.046;13.692;2023-05-24T15:47:38;10.88;;;3.15;;
70818;SDS011;58439;51.046;13.692;2023-05-24T15:50:07;12.93;;;3.30;;
70818;SDS011;58439;51.046;13.692;2023-05-24T15:52:34;13.73;;;3.65;;
70818;SDS011;58439;51.046;13.692;2023-05-24T15:55:02;17.20;;;3.30;;
70818;SDS011;58439;51.046;13.692;2023-05-24T15:57:30;10.88;;;3.20;;
70818;SDS011;58439;51.046;13.692;2023-05-24T15:59:58;9.07;;;3.20;;
70818;SDS011;58439;51.046;13.692;2023-05-24T16:02:42;9.50;;;3.50;;
70818;SDS011;58439;51.046;13.692;2023-05-24T16:05:16;13.82;;;3.60;;
70818;SDS011;58439;51.046;13.692;2023-05-24T16:07:49;15.90;;;4.28;;
70818;SDS011;58439;51.046;13.692;2023-05-24T16:10:17;12.85;;;3.60;;
70818;SDS011;58439;51.046;13.692;2023-05-24T16:12:44;10.23;;;3.35;;
70818;SDS011;58439;51.046;13.692;2023-05-24T16:15:11;19.30;;;4.10;;
70818;SDS011;58439;51.046;13.692;2023-05-24T16:17:38;14.82;;;3.30;;
70818;SDS011;58439;51.046;13.692;2023-05-24T16:20:06;11.82;;;3.42;;
70818;SDS011;58439;51.046;13.692;2023-05-24T16:22:33;10.20;;;3.45;;
70818;SDS011;58439;51.046;13.692;2023-05-24T16:25:02;10.00;;;3.25;;
70818;SDS011;58439;51.046;13.692;2023-05-24T16:27:30;9.23;;;3.33;;
70818;SDS011;58439;51.046;13.692;2023-05-24T16:29:57;10.10;;;3.33;;
70818;SDS011;58439;51.046;13.692;2023-05-24T16:32:24;10.02;;;3.33;;
70818;SDS011;58439;51.046;13.692;2023-05-24T16:34:51;10.60;;;3.45;;
70818;SDS011;58439;51.046;13.692;2023-05-24T16:37:24;10.85;;;3.13;;
70818;SDS011;58439;51.046;13.692;2023-05-24T16:39:51;14.10;;;3.80;;
70818;SDS011;58439;51.046;13.692;2023-05-24T16:42:18;16.33;;;3.65;;
70818;SDS011;58439;51.046;13.692;2023-05-24T16:44:45;12.13;;;3.20;;
70818;SDS011;58439;51.046;13.692;2023-05-24T16:47:13;12.63;;;3.70;;
70818;SDS011;58439;51.046;13.692;2023-05-24T16:49:40;16.25;;;3.47;;
70818;SDS011;58439;51.046;13.692;2023-05-24T16:52:07;13.75;;;4.07;;
70818;SDS011;58439;51.046;13.692;2023-05-24T16:54:34;13.40;;;3.90;;
70818;SDS011;58439;51.046;13.692;2023-05-24T16:57:01;14.77;;;3.65;;
70818;SDS011;58439;51.046;13.692;2023-05-24T16:59:29;12.43;;;3.53;;
70818;SDS011;58439;51.046;13.692;2023-05-24T17:01:56;11.90;;;3.33;;
70818;SDS011;58439;51.046;13.692;2023-05-24T17:04:23;9.35;;;3.40;;
70818;SDS011;58439;51.046;13.692;2023-05-24T17:06:50;12.48;;;3.50;;
70818;SDS011;58439;51.046;13.692;2023-05-24T17:09:17;9.55;;;3.25;;
70818;SDS011;58439;51.046;13.692;2023-05-24T17:11:44;8.05;;;3.28;;
70818;SDS011;58439;51.046;13.692;2023-05-24T17:14:14;12.55;;;3.33;;
70818;SDS011;58439;51.046;13.692;2023-05-24T17:16:41;11.75;;;3.20;;
70818;SDS011;58439;51.046;13.692;2023-05-24T17:19:09;8.98;;;3.13;;
70818;SDS011;58439;51.046;13.692;2023-05-24T17:21:38;11.43;;;2.88;;
70818;SDS011;58439;51.046;13.692;2023-05-24T17:24:05;17.88;;;3.25;;
70818;SDS011;58439;51.046;13.692;2023-05-24T17:26:32;9.23;;;3.05;;
70818;SDS011;58439;51.046;13.692;2023-05-24T17:29:00;8.00;;;3.03;;
70818;SDS011;58439;51.046;13.692;2023-05-24T17:31:27;10.82;;;3.15;;
70818;SDS011;58439;51.046;13.692;2023-05-24T17:33:54;9.70;;;3.38;;
70818;SDS011;58439;51.046;13.692;2023-05-24T17:36:23;11.65;;;3.33;;
70818;SDS011;58439;51.046;13.692;2023-05-24T17:41:46;14.35;;;3.47;;
70818;SDS011;58439;51.046;13.692;2023-05-24T17:44:21;15.95;;;3.75;;
70818;SDS011;58439;51.046;13.692;2023-05-24T17:46:48;13.43;;;3.65;;
70818;SDS011;58439;51.046;13.692;2023-05-24T17:49:15;13.05;;;3.58;;
70818;SDS011;58439;51.046;13.692;2023-05-24T17:51:43;10.65;;;3.10;;
70818;SDS011;58439;51.046;13.692;2023-05-24T17:54:21;13.43;;;3.67;;
70818;SDS011;58439;51.046;13.692;2023-05-24T17:56:48;12.15;;;3.53;;
70818;SDS011;58439;51.046;13.692;2023-05-24T17:59:16;12.05;;;3.65;;
70818;SDS011;58439;51.046;13.692;2023-05-24T18:01:45;11.43;;;3.17;;
70818;SDS011;58439;51.046;13.692;2023-05-24T18:04:12;13.70;;;3.53;;
70818;SDS011;58439;51.046;13.692;2023-05-24T18:06:40;8.77;;;3.35;;
70818;SDS011;58439;51.046;13.692;2023-05-24T18:09:08;9.30;;;3.40;;
70818;SDS011;58439;51.046;13.692;2023-05-24T18:11:36;14.02;;;3.80;;
70818;SDS011;58439;51.046;13.692;2023-05-24T18:14:04;13.27;;;3.72;;
70818;SDS011;58439;51.046;13.692;2023-05-24T18:16:31;14.00;;;4.13;;
70818;SDS011;58439;51.046;13.692;2023-05-24T18:18:59;13.63;;;3.53;;
70818;SDS011;58439;51.046;13.692;2023-05-24T18:21:27;9.15;;;3.20;;
70818;SDS011;58439;51.046;13.692;2023-05-24T18:23:54;12.05;;;3.58;;
70818;SDS011;58439;51.046;13.692;2023-05-24T18:26:21;16.70;;;3.70;;
70818;SDS011;58439;51.046;13.692;2023-05-24T18:28:49;14.63;;;3.88;;
70818;SDS011;58439;51.046;13.692;2023-05-24T18:31:16;13.15;;;3.55;;
70818;SDS011;58439;51.046;13.692;2023-05-24T18:33:43;16.50;;;3.83;;
70818;SDS011;58439;51.046;13.692;2023-05-24T18:36:11;15.05;;;4.05;;
70818;SDS011;58439;51.046;13.692;2023-05-24T18:38:38;12.40;;;3.80;;
70818;SDS011;58439;51.046;13.692;2023-05-24T18:41:12;19.58;;;4.55;;
70818;SDS011;58439;51.046;13.692;2023-05-24T18:43:40;16.33;;;4.25;;
70818;SDS011;58439;51.046;13.692;2023-05-24T18:46:09;12.88;;;3.85;;
70818;SDS011;58439;51.046;13.692;2023-05-24T18:48:40;14.00;;;4.05;;
70818;SDS011;58439;51.046;13.692;2023-05-24T18:51:08;16.90;;;4.53;;
70818;SDS011;58439;51.046;13.692;2023-05-24T18:53:43;13.50;;;4.28;;
70818;SDS011;58439;51.046;13.692;2023-05-24T18:56:10;18.58;;;4.53;;
70818;SDS011;58439;51.046;13.692;2023-05-24T18:58:39;15.02;;;4.72;;
70818;SDS011;58439;51.046;13.692;2023-05-24T19:01:46;17.92;;;4.22;;
70818;SDS011;58439;51.046;13.692;2023-05-24T19:04:13;17.85;;;4.53;;
70818;SDS011;58439;51.046;13.692;2023-05-24T19:13:17;16.08;;;4.88;;
70818;SDS011;58439;51.046;13.692;2023-05-24T19:22:50;12.27;;;4.63;;
70818;SDS011;58439;51.046;13.692;2023-05-24T19:25:17;18.05;;;5.75;;
70818;SDS011;58439;51.046;13.692;2023-05-24T19:30:37;14.20;;;5.28;;
70818;SDS011;58439;51.046;13.692;2023-05-24T19:33:15;20.13;;;5.20;;
70818;SDS011;58439;51.046;13.692;2023-05-24T19:35:48;18.55;;;5.07;;
70818;SDS011;58439;51.046;13.692;2023-05-24T19:38:37;16.70;;;5.03;;
70818;SDS011;58439;51.046;13.692;2023-05-24T19:49:46;17.15;;;4.55;;
70818;SDS011;58439;51.046;13.692;2023-05-24T19:53:23;19.10;;;4.93;;
70818;SDS011;58439;51.046;13.692;2023-05-24T20:08:29;14.23;;;4.82;;
70818;SDS011;58439;51.046;13.692;2023-05-24T20:17:55;16.20;;;5.30;;
70818;SDS011;58439;51.046;13.692;2023-05-24T20:25:34;16.40;;;5.22;;
70818;SDS011;58439;51.046;13.692;2023-05-24T20:28:50;14.98;;;4.70;;
70818;SDS011;58439;51.046;13.692;2023-05-24T20:32:29;12.10;;;4.88;;
70818;SDS011;58439;51.046;13.692;2023-05-24T20:35:21;15.85;;;5.45;;
70818;SDS011;58439;51.046;13.692;2023-05-24T20:38:13;14.88;;;5.82;;
70818;SDS011;58439;51.046;13.692;2023-05-24T20:40:49;18.42;;;5.32;;
70818;SDS011;58439;51.046;13.692;2023-05-24T20:43:27;19.52;;;4.88;;
70818;SDS011;58439;51.046;13.692;2023-05-24T20:46:23;15.68;;;5.07;;
70818;SDS011;58439;51.046;13.692;2023-05-24T20:53:21;16.40;;;5.18;;
70818;SDS011;58439;51.046;13.692;2023-05-24T20:57:48;22.00;;;6.50;;
70818;SDS011;58439;51.046;13.692;2023-05-24T21:01:52;13.63;;;5.95;;
70818;SDS011;58439;51.046;13.692;2023-05-24T21:05:22;21.92;;;6.03;;
70818;SDS011;58439;51.046;13.692;2023-05-24T21:08:23;15.32;;;5.75;;
70818;SDS011;58439;51.046;13.692;2023-05-24T21:11:58;15.93;;;5.30;;
70818;SDS011;58439;51.046;13.692;2023-05-24T21:15:37;22.23;;;6.13;;
70818;SDS011;58439;51.046;13.692;2023-05-24T21:27:44;14.15;;;5.20;;
70818;SDS011;58439;51.046;13.692;2023-05-24T21:36:39;17.27;;;5.97;;
70818;SDS011;58439;51.046;13.692;2023-05-24T21:43:57;18.77;;;7.30;;
70818;SDS011;58439;51.046;13.692;2023-05-24T21:54:47;20.90;;;7.65;;
70818;SDS011;58439;51.046;13.692;2023-05-24T22:02:17;20.23;;;8.25;;
70818;SDS011;58439;51.046;13.692;2023-05-24T22:05:04;28.52;;;9.23;;
70818;SDS011;58439;51.046;13.692;2023-05-24T22:15:08;22.77;;;7.22;;
70818;SDS011;58439;51.046;13.692;2023-05-24T22:18:49;16.42;;;7.20;;
70818;SDS011;58439;51.046;13.692;2023-05-24T22:31:28;20.27;;;7.30;;
70818;SDS011;58439;51.046;13.692;2023-05-24T22:35:54;16.15;;;6.72;;
70818;SDS011;58439;51.046;13.692;2023-05-24T22:47:13;16.35;;;7.10;;
70818;SDS011;58439;51.046;13.692;2023-05-24T22:50:04;18.45;;;8.07;;
70818;SDS011;58439;51.046;13.692;2023-05-24T22:57:07;18.67;;;7.50;;
70818;SDS011;58439;51.046;13.692;2023-05-24T23:00:54;19.40;;;6.53;;
70818;SDS011;58439;51.046;13.692;2023-05-24T23:05:22;22.25;;;7.47;;
70818;SDS011;58439;51.046;13.692;2023-05-24T23:09:07;24.58;;;7.65;;
70818;SDS011;58439;51.046;13.692;2023-05-24T23:12:24;24.77;;;8.53;;
70818;SDS011;58439;51.046;13.692;2023-05-24T23:15:25;26.10;;;8.60;;
70818;SDS011;58439;51.046;13.692;2023-05-24T23:19:39;23.48;;;8.63;;
70818;SDS011;58439;51.046;13.692;2023-05-24T23:23:22;21.30;;;8.75;;
70818;SDS011;58439;51.046;13.692;2023-05-24T23:27:52;25.30;;;8.93;;
70818;SDS011;58439;51.046;13.692;2023-05-24T23:32:31;23.75;;;8.52;;
70818;SDS011;58439;51.046;13.692;2023-05-24T23:40:08;20.58;;;7.40;;
70818;SDS011;58439;51.046;13.692;2023-05-24T23:44:09;20.45;;;6.65;;
70818;SDS011;58439;51.046;13.692;2023-05-24T23:48:28;23.58;;;7.03;;
70818;SDS011;58439;51.046;13.692;2023-05-24T23:55:49;15.77;;;7.07;;
